Forside
METAR-TAF:

METAR-TAF

Lufthavne :

Fort Smith, Northwest Territories, Canada

Breddekreds: 60-01N, længdekreds: 111-57W, højde: 203 m

Aktuelle vejr

Denne rapport blev lavet for 48 minutter siden, kl. 00:00 UTC
Vind 6 kt fra nordvest
Temperatur -23°C
Fugtighed 58%
Tryk 1037 hPa
Sigt: 24.1 km
skyfri
lavt drivende sne

METAR: CYSM 240000Z 32006KT 15SM DRSN SKC M23/M29 A3062 RMK SLP401

Tid: 17:48 (00:48 UTC)

Vejrudsigter

Denne rapport blev lavet for 1 time og 5 minutter siden, kl. 23:43 UTC
Foreløbig gælder fra 24 på 00 UTC til 24 på 12 UTC
Vind 10 kt fra nordvest
Sigt: 10 km
skyfri
ændring
fra 24 på 02 UTC til 24 på 04 UTC
Vind 5 kt fra nordvest

TAF: CYSM 232343Z 2400/2412 31010KT P6SM SKC BECMG 2402/2404 31005KT RMK NXT FCST BY 240600Z

Vejrobservationer og prognoser fra mere end 4000 lufthavne (METAR og TAF).

De gule og røde prikker repræsenterer de meteorologiske stationer.

Flyt musen over at se navnet på stationen.

Så klik over at se vejr observationer og prognoser.

At skifte det kort: Klik på de grønne knapper med et sort kors for at zoome ind; på den grønne knap med en bindestreg for at zoome ud; eller på de grønne pile for tilstødende kort.


METAR-TAF: